sensor_id;sensor_type;location;lat;lon;timestamp;P1;durP1;ratioP1;P2;durP2;ratioP2
49193;SDS011;35029;50.804;12.866;2023-07-13T00:00:41;2.05;;;1.45;;
49193;SDS011;35029;50.804;12.866;2023-07-13T00:03:07;2.13;;;1.90;;
49193;SDS011;35029;50.804;12.866;2023-07-13T00:05:32;3.47;;;1.73;;
49193;SDS011;35029;50.804;12.866;2023-07-13T00:07:58;5.72;;;2.25;;
49193;SDS011;35029;50.804;12.866;2023-07-13T00:10:24;3.97;;;1.75;;
49193;SDS011;35029;50.804;12.866;2023-07-13T00:12:49;5.13;;;1.88;;
49193;SDS011;35029;50.804;12.866;2023-07-13T00:15:20;4.88;;;2.35;;
49193;SDS011;35029;50.804;12.866;2023-07-13T00:17:50;4.90;;;2.28;;
49193;SDS011;35029;50.804;12.866;2023-07-13T00:20:23;3.65;;;2.13;;
49193;SDS011;35029;50.804;12.866;2023-07-13T00:22:50;5.95;;;2.15;;
49193;SDS011;35029;50.804;12.866;2023-07-13T00:25:19;3.65;;;1.90;;
49193;SDS011;35029;50.804;12.866;2023-07-13T00:27:46;5.25;;;2.03;;
49193;SDS011;35029;50.804;12.866;2023-07-13T00:30:14;6.40;;;2.30;;
49193;SDS011;35029;50.804;12.866;2023-07-13T00:32:40;6.93;;;2.60;;
49193;SDS011;35029;50.804;12.866;2023-07-13T00:35:06;3.47;;;1.90;;
49193;SDS011;35029;50.804;12.866;2023-07-13T00:37:32;7.78;;;2.00;;
49193;SDS011;35029;50.804;12.866;2023-07-13T00:39:58;2.40;;;2.13;;
49193;SDS011;35029;50.804;12.866;2023-07-13T00:42:24;2.85;;;1.98;;
49193;SDS011;35029;50.804;12.866;2023-07-13T00:47:38;6.63;;;2.13;;
49193;SDS011;35029;50.804;12.866;2023-07-13T00:52:36;3.28;;;2.15;;
49193;SDS011;35029;50.804;12.866;2023-07-13T00:55:11;4.53;;;2.30;;
49193;SDS011;35029;50.804;12.866;2023-07-13T00:57:39;7.75;;;2.83;;
49193;SDS011;35029;50.804;12.866;2023-07-13T01:00:06;6.40;;;2.08;;
49193;SDS011;35029;50.804;12.866;2023-07-13T01:02:35;3.50;;;2.10;;
49193;SDS011;35029;50.804;12.866;2023-07-13T01:05:10;8.13;;;2.67;;
49193;SDS011;35029;50.804;12.866;2023-07-13T01:07:38;5.22;;;2.25;;
49193;SDS011;35029;50.804;12.866;2023-07-13T01:10:05;5.25;;;2.70;;
49193;SDS011;35029;50.804;12.866;2023-07-13T01:12:32;7.10;;;2.78;;
49193;SDS011;35029;50.804;12.866;2023-07-13T01:14:58;8.35;;;2.60;;
49193;SDS011;35029;50.804;12.866;2023-07-13T01:17:25;4.28;;;2.67;;
49193;SDS011;35029;50.804;12.866;2023-07-13T01:19:52;4.57;;;2.50;;
49193;SDS011;35029;50.804;12.866;2023-07-13T01:22:18;8.88;;;2.75;;
49193;SDS011;35029;50.804;12.866;2023-07-13T01:24:45;7.03;;;2.65;;
49193;SDS011;35029;50.804;12.866;2023-07-13T01:27:16;6.07;;;2.47;;
49193;SDS011;35029;50.804;12.866;2023-07-13T01:29:45;7.57;;;2.80;;
49193;SDS011;35029;50.804;12.866;2023-07-13T01:32:17;4.18;;;2.10;;
49193;SDS011;35029;50.804;12.866;2023-07-13T01:34:52;12.48;;;2.90;;
49193;SDS011;35029;50.804;12.866;2023-07-13T01:37:22;9.77;;;2.80;;
49193;SDS011;35029;50.804;12.866;2023-07-13T01:39:50;4.47;;;2.20;;
49193;SDS011;35029;50.804;12.866;2023-07-13T01:42:16;4.65;;;2.50;;
49193;SDS011;35029;50.804;12.866;2023-07-13T01:44:42;4.32;;;2.60;;
49193;SDS011;35029;50.804;12.866;2023-07-13T01:47:08;7.20;;;2.53;;
49193;SDS011;35029;50.804;12.866;2023-07-13T01:49:35;11.55;;;2.55;;
49193;SDS011;35029;50.804;12.866;2023-07-13T01:52:01;5.32;;;2.40;;
49193;SDS011;35029;50.804;12.866;2023-07-13T01:54:26;10.05;;;2.58;;
49193;SDS011;35029;50.804;12.866;2023-07-13T01:56:52;4.18;;;2.55;;
49193;SDS011;35029;50.804;12.866;2023-07-13T01:59:17;6.43;;;2.38;;
49193;SDS011;35029;50.804;12.866;2023-07-13T02:01:43;5.57;;;2.10;;
49193;SDS011;35029;50.804;12.866;2023-07-13T02:04:09;9.30;;;2.70;;
49193;SDS011;35029;50.804;12.866;2023-07-13T02:06:35;2.53;;;1.63;;
49193;SDS011;35029;50.804;12.866;2023-07-13T02:09:01;3.97;;;2.30;;
49193;SDS011;35029;50.804;12.866;2023-07-13T02:11:27;4.53;;;2.50;;
49193;SDS011;35029;50.804;12.866;2023-07-13T02:14:00;2.85;;;2.00;;
49193;SDS011;35029;50.804;12.866;2023-07-13T02:16:27;3.83;;;2.50;;
49193;SDS011;35029;50.804;12.866;2023-07-13T02:18:53;3.33;;;1.98;;
49193;SDS011;35029;50.804;12.866;2023-07-13T02:21:21;3.50;;;2.25;;
49193;SDS011;35029;50.804;12.866;2023-07-13T02:23:47;8.85;;;2.58;;
49193;SDS011;35029;50.804;12.866;2023-07-13T02:26:15;5.43;;;2.17;;
49193;SDS011;35029;50.804;12.866;2023-07-13T02:28:41;3.55;;;2.60;;
49193;SDS011;35029;50.804;12.866;2023-07-13T02:31:07;5.22;;;2.58;;
49193;SDS011;35029;50.804;12.866;2023-07-13T02:33:34;3.60;;;2.33;;
49193;SDS011;35029;50.804;12.866;2023-07-13T02:36:00;7.15;;;2.50;;
49193;SDS011;35029;50.804;12.866;2023-07-13T02:38:25;3.05;;;2.40;;
49193;SDS011;35029;50.804;12.866;2023-07-13T02:40:51;7.25;;;2.15;;
49193;SDS011;35029;50.804;12.866;2023-07-13T02:43:18;3.13;;;2.25;;
49193;SDS011;35029;50.804;12.866;2023-07-13T02:45:46;12.63;;;2.90;;
49193;SDS011;35029;50.804;12.866;2023-07-13T02:48:13;5.60;;;2.40;;
49193;SDS011;35029;50.804;12.866;2023-07-13T02:50:39;4.82;;;2.25;;
49193;SDS011;35029;50.804;12.866;2023-07-13T02:53:04;5.72;;;2.03;;
49193;SDS011;35029;50.804;12.866;2023-07-13T02:55:30;4.80;;;2.20;;
49193;SDS011;35029;50.804;12.866;2023-07-13T02:57:55;3.53;;;2.65;;
49193;SDS011;35029;50.804;12.866;2023-07-13T03:00:22;3.25;;;2.22;;
49193;SDS011;35029;50.804;12.866;2023-07-13T03:02:48;5.15;;;2.20;;
49193;SDS011;35029;50.804;12.866;2023-07-13T03:05:15;3.20;;;2.28;;
49193;SDS011;35029;50.804;12.866;2023-07-13T03:07:42;6.60;;;2.72;;
49193;SDS011;35029;50.804;12.866;2023-07-13T03:10:09;3.35;;;2.33;;
49193;SDS011;35029;50.804;12.866;2023-07-13T03:12:42;6.97;;;2.25;;
49193;SDS011;35029;50.804;12.866;2023-07-13T03:15:16;3.17;;;2.58;;
49193;SDS011;35029;50.804;12.866;2023-07-13T03:17:43;9.52;;;2.88;;
49193;SDS011;35029;50.804;12.866;2023-07-13T03:20:09;4.18;;;2.35;;
49193;SDS011;35029;50.804;12.866;2023-07-13T03:22:35;2.85;;;2.10;;
49193;SDS011;35029;50.804;12.866;2023-07-13T03:25:01;3.63;;;2.35;;
49193;SDS011;35029;50.804;12.866;2023-07-13T03:27:27;4.28;;;2.70;;
49193;SDS011;35029;50.804;12.866;2023-07-13T03:29:53;5.47;;;2.75;;
49193;SDS011;35029;50.804;12.866;2023-07-13T03:32:19;5.68;;;2.30;;
49193;SDS011;35029;50.804;12.866;2023-07-13T03:34:44;4.75;;;2.17;;
49193;SDS011;35029;50.804;12.866;2023-07-13T03:37:11;7.43;;;3.08;;
49193;SDS011;35029;50.804;12.866;2023-07-13T03:39:37;11.45;;;2.58;;
49193;SDS011;35029;50.804;12.866;2023-07-13T03:42:04;6.47;;;2.45;;
49193;SDS011;35029;50.804;12.866;2023-07-13T03:44:31;7.07;;;2.38;;
49193;SDS011;35029;50.804;12.866;2023-07-13T03:46:57;4.78;;;3.00;;
49193;SDS011;35029;50.804;12.866;2023-07-13T03:49:23;2.50;;;2.00;;
49193;SDS011;35029;50.804;12.866;2023-07-13T03:51:48;7.38;;;2.42;;
49193;SDS011;35029;50.804;12.866;2023-07-13T03:54:14;5.43;;;2.53;;
49193;SDS011;35029;50.804;12.866;2023-07-13T03:56:39;4.70;;;2.53;;
49193;SDS011;35029;50.804;12.866;2023-07-13T03:59:07;4.18;;;2.42;;
49193;SDS011;35029;50.804;12.866;2023-07-13T04:01:32;7.07;;;2.90;;
49193;SDS011;35029;50.804;12.866;2023-07-13T04:03:58;3.63;;;2.53;;
49193;SDS011;35029;50.804;12.866;2023-07-13T04:06:27;3.15;;;2.50;;
49193;SDS011;35029;50.804;12.866;2023-07-13T04:08:55;5.37;;;2.33;;
49193;SDS011;35029;50.804;12.866;2023-07-13T04:11:24;5.32;;;3.03;;
49193;SDS011;35029;50.804;12.866;2023-07-13T04:13:51;8.45;;;2.55;;
49193;SDS011;35029;50.804;12.866;2023-07-13T04:16:17;4.60;;;2.80;;
49193;SDS011;35029;50.804;12.866;2023-07-13T04:18:45;5.57;;;2.28;;
49193;SDS011;35029;50.804;12.866;2023-07-13T04:21:12;5.55;;;2.70;;
49193;SDS011;35029;50.804;12.866;2023-07-13T04:23:39;5.00;;;2.53;;
49193;SDS011;35029;50.804;12.866;2023-07-13T04:26:05;5.97;;;2.50;;
49193;SDS011;35029;50.804;12.866;2023-07-13T04:28:31;8.88;;;3.25;;
49193;SDS011;35029;50.804;12.866;2023-07-13T04:30:57;3.35;;;2.58;;
49193;SDS011;35029;50.804;12.866;2023-07-13T04:33:22;10.82;;;3.47;;
49193;SDS011;35029;50.804;12.866;2023-07-13T04:35:49;6.45;;;2.78;;
49193;SDS011;35029;50.804;12.866;2023-07-13T04:38:21;4.63;;;2.42;;
49193;SDS011;35029;50.804;12.866;2023-07-13T04:40:49;4.88;;;2.88;;
49193;SDS011;35029;50.804;12.866;2023-07-13T04:43:15;7.63;;;2.83;;
49193;SDS011;35029;50.804;12.866;2023-07-13T04:45:40;3.80;;;2.50;;
49193;SDS011;35029;50.804;12.866;2023-07-13T04:48:06;12.35;;;2.92;;
49193;SDS011;35029;50.804;12.866;2023-07-13T04:50:32;4.85;;;2.90;;
49193;SDS011;35029;50.804;12.866;2023-07-13T04:52:57;5.57;;;2.92;;
49193;SDS011;35029;50.804;12.866;2023-07-13T04:55:24;4.93;;;3.28;;
49193;SDS011;35029;50.804;12.866;2023-07-13T04:57:50;5.13;;;3.20;;
49193;SDS011;35029;50.804;12.866;2023-07-13T05:00:16;5.43;;;3.25;;
49193;SDS011;35029;50.804;12.866;2023-07-13T05:02:43;7.80;;;3.08;;
49193;SDS011;35029;50.804;12.866;2023-07-13T05:05:10;5.68;;;2.58;;
49193;SDS011;35029;50.804;12.866;2023-07-13T05:07:36;6.53;;;3.40;;
49193;SDS011;35029;50.804;12.866;2023-07-13T05:10:03;6.68;;;3.17;;
49193;SDS011;35029;50.804;12.866;2023-07-13T05:12:29;6.40;;;3.47;;
49193;SDS011;35029;50.804;12.866;2023-07-13T05:14:55;9.70;;;3.78;;
49193;SDS011;35029;50.804;12.866;2023-07-13T05:17:22;8.77;;;2.78;;
49193;SDS011;35029;50.804;12.866;2023-07-13T05:19:48;7.40;;;3.22;;
49193;SDS011;35029;50.804;12.866;2023-07-13T05:22:14;12.70;;;3.65;;
49193;SDS011;35029;50.804;12.866;2023-07-13T05:24:40;14.52;;;3.65;;
49193;SDS011;35029;50.804;12.866;2023-07-13T05:27:05;6.55;;;3.42;;
49193;SDS011;35029;50.804;12.866;2023-07-13T05:29:31;13.90;;;4.40;;
49193;SDS011;35029;50.804;12.866;2023-07-13T05:31:57;9.20;;;3.22;;
49193;SDS011;35029;50.804;12.866;2023-07-13T05:34:22;7.95;;;2.92;;
49193;SDS011;35029;50.804;12.866;2023-07-13T05:36:48;8.15;;;3.42;;
49193;SDS011;35029;50.804;12.866;2023-07-13T05:39:14;7.18;;;3.00;;
49193;SDS011;35029;50.804;12.866;2023-07-13T05:41:42;5.35;;;3.28;;
49193;SDS011;35029;50.804;12.866;2023-07-13T05:44:07;5.75;;;3.38;;
49193;SDS011;35029;50.804;12.866;2023-07-13T05:46:34;3.97;;;2.95;;
49193;SDS011;35029;50.804;12.866;2023-07-13T05:49:00;4.20;;;2.67;;
49193;SDS011;35029;50.804;12.866;2023-07-13T05:51:33;8.25;;;3.65;;
49193;SDS011;35029;50.804;12.866;2023-07-13T05:53:59;5.93;;;2.70;;
49193;SDS011;35029;50.804;12.866;2023-07-13T05:56:25;5.45;;;3.10;;
49193;SDS011;35029;50.804;12.866;2023-07-13T05:58:51;3.72;;;2.60;;
49193;SDS011;35029;50.804;12.866;2023-07-13T06:01:17;4.38;;;2.40;;
49193;SDS011;35029;50.804;12.866;2023-07-13T06:03:45;3.45;;;1.90;;
49193;SDS011;35029;50.804;12.866;2023-07-13T06:06:12;1.83;;;1.65;;
49193;SDS011;35029;50.804;12.866;2023-07-13T06:08:38;3.58;;;1.80;;
49193;SDS011;35029;50.804;12.866;2023-07-13T06:11:06;3.17;;;2.20;;
49193;SDS011;35029;50.804;12.866;2023-07-13T06:13:52;4.28;;;2.13;;
49193;SDS011;35029;50.804;12.866;2023-07-13T06:16:19;5.47;;;1.83;;
49193;SDS011;35029;50.804;12.866;2023-07-13T06:18:45;12.75;;;2.38;;
49193;SDS011;35029;50.804;12.866;2023-07-13T06:21:12;5.22;;;2.35;;
49193;SDS011;35029;50.804;12.866;2023-07-13T06:23:39;3.47;;;1.73;;
49193;SDS011;35029;50.804;12.866;2023-07-13T06:26:05;4.88;;;2.35;;
49193;SDS011;35029;50.804;12.866;2023-07-13T06:28:32;3.28;;;1.95;;
49193;SDS011;35029;50.804;12.866;2023-07-13T06:30:58;4.53;;;1.88;;
49193;SDS011;35029;50.804;12.866;2023-07-13T06:33:25;6.45;;;2.15;;
49193;SDS011;35029;50.804;12.866;2023-07-13T06:35:51;3.35;;;2.28;;
49193;SDS011;35029;50.804;12.866;2023-07-13T06:38:16;4.85;;;2.10;;
49193;SDS011;35029;50.804;12.866;2023-07-13T06:40:42;5.85;;;2.33;;
49193;SDS011;35029;50.804;12.866;2023-07-13T06:43:08;10.95;;;2.25;;
49193;SDS011;35029;50.804;12.866;2023-07-13T06:45:41;6.28;;;2.60;;
49193;SDS011;35029;50.804;12.866;2023-07-13T06:48:08;5.28;;;2.25;;
49193;SDS011;35029;50.804;12.866;2023-07-13T06:50:34;4.78;;;2.55;;
49193;SDS011;35029;50.804;12.866;2023-07-13T06:52:59;5.03;;;2.80;;
49193;SDS011;35029;50.804;12.866;2023-07-13T06:55:25;5.20;;;2.50;;
49193;SDS011;35029;50.804;12.866;2023-07-13T06:57:51;5.93;;;2.30;;
49193;SDS011;35029;50.804;12.866;2023-07-13T07:00:17;4.00;;;2.08;;
49193;SDS011;35029;50.804;12.866;2023-07-13T07:02:43;5.15;;;2.10;;
49193;SDS011;35029;50.804;12.866;2023-07-13T07:05:09;4.07;;;2.13;;
49193;SDS011;35029;50.804;12.866;2023-07-13T07:07:35;4.10;;;2.10;;
49193;SDS011;35029;50.804;12.866;2023-07-13T07:10:01;4.07;;;1.88;;
49193;SDS011;35029;50.804;12.866;2023-07-13T07:12:28;3.92;;;2.10;;
49193;SDS011;35029;50.804;12.866;2023-07-13T07:14:54;7.25;;;2.13;;
49193;SDS011;35029;50.804;12.866;2023-07-13T07:17:19;3.13;;;2.00;;
49193;SDS011;35029;50.804;12.866;2023-07-13T07:19:45;2.95;;;1.85;;
49193;SDS011;35029;50.804;12.866;2023-07-13T07:22:11;2.75;;;1.92;;
49193;SDS011;35029;50.804;12.866;2023-07-13T07:24:36;3.08;;;1.70;;
49193;SDS011;35029;50.804;12.866;2023-07-13T07:27:02;3.88;;;2.35;;
49193;SDS011;35029;50.804;12.866;2023-07-13T07:29:28;2.35;;;1.50;;
49193;SDS011;35029;50.804;12.866;2023-07-13T07:31:54;4.43;;;2.03;;
49193;SDS011;35029;50.804;12.866;2023-07-13T07:34:19;3.63;;;1.98;;
49193;SDS011;35029;50.804;12.866;2023-07-13T07:36:45;4.07;;;2.15;;
49193;SDS011;35029;50.804;12.866;2023-07-13T07:39:11;4.60;;;2.03;;
49193;SDS011;35029;50.804;12.866;2023-07-13T07:41:37;2.58;;;1.67;;
49193;SDS011;35029;50.804;12.866;2023-07-13T07:44:03;4.90;;;1.83;;
49193;SDS011;35029;50.804;12.866;2023-07-13T07:46:29;7.97;;;2.22;;
49193;SDS011;35029;50.804;12.866;2023-07-13T07:48:55;4.72;;;2.15;;
49193;SDS011;35029;50.804;12.866;2023-07-13T07:51:21;4.22;;;1.30;;
49193;SDS011;35029;50.804;12.866;2023-07-13T07:53:47;6.20;;;1.88;;
49193;SDS011;35029;50.804;12.866;2023-07-13T07:56:12;4.47;;;1.50;;
49193;SDS011;35029;50.804;12.866;2023-07-13T07:58:38;6.50;;;1.80;;
49193;SDS011;35029;50.804;12.866;2023-07-13T08:01:04;8.02;;;2.20;;
49193;SDS011;35029;50.804;12.866;2023-07-13T08:03:31;4.40;;;1.90;;
49193;SDS011;35029;50.804;12.866;2023-07-13T08:06:04;4.18;;;1.60;;
49193;SDS011;35029;50.804;12.866;2023-07-13T08:08:32;3.53;;;1.65;;
49193;SDS011;35029;50.804;12.866;2023-07-13T08:10:57;3.28;;;1.60;;
49193;SDS011;35029;50.804;12.866;2023-07-13T08:13:31;7.75;;;2.25;;
49193;SDS011;35029;50.804;12.866;2023-07-13T08:15:59;3.00;;;1.40;;
49193;SDS011;35029;50.804;12.866;2023-07-13T08:18:26;4.28;;;1.85;;
49193;SDS011;35029;50.804;12.866;2023-07-13T08:20:53;3.78;;;1.70;;
49193;SDS011;35029;50.804;12.866;2023-07-13T08:23:24;7.03;;;2.03;;
49193;SDS011;35029;50.804;12.866;2023-07-13T08:25:53;6.63;;;1.90;;
49193;SDS011;35029;50.804;12.866;2023-07-13T08:28:23;3.60;;;1.95;;
49193;SDS011;35029;50.804;12.866;2023-07-13T08:30:49;2.58;;;1.55;;
49193;SDS011;35029;50.804;12.866;2023-07-13T08:33:19;3.88;;;1.90;;
49193;SDS011;35029;50.804;12.866;2023-07-13T08:35:48;4.90;;;2.00;;
49193;SDS011;35029;50.804;12.866;2023-07-13T08:38:14;6.07;;;1.65;;
49193;SDS011;35029;50.804;12.866;2023-07-13T08:40:41;3.58;;;1.73;;
49193;SDS011;35029;50.804;12.866;2023-07-13T08:43:13;6.68;;;1.90;;
49193;SDS011;35029;50.804;12.866;2023-07-13T08:50:59;2.83;;;1.73;;
49193;SDS011;35029;50.804;12.866;2023-07-13T08:53:48;3.65;;;1.95;;
49193;SDS011;35029;50.804;12.866;2023-07-13T08:56:19;3.85;;;1.75;;
49193;SDS011;35029;50.804;12.866;2023-07-13T08:58:48;3.75;;;1.45;;
49193;SDS011;35029;50.804;12.866;2023-07-13T09:04:20;4.95;;;2.10;;
49193;SDS011;35029;50.804;12.866;2023-07-13T09:07:32;3.92;;;1.98;;
49193;SDS011;35029;50.804;12.866;2023-07-13T09:10:18;3.70;;;1.60;;
49193;SDS011;35029;50.804;12.866;2023-07-13T09:15:41;3.25;;;1.67;;
49193;SDS011;35029;50.804;12.866;2023-07-13T09:23:13;7.53;;;2.13;;
49193;SDS011;35029;50.804;12.866;2023-07-13T09:25:43;7.38;;;2.08;;
49193;SDS011;35029;50.804;12.866;2023-07-13T09:28:16;6.53;;;1.67;;
49193;SDS011;35029;50.804;12.866;2023-07-13T09:31:07;4.03;;;2.03;;
49193;SDS011;35029;50.804;12.866;2023-07-13T09:33:44;3.00;;;1.65;;
49193;SDS011;35029;50.804;12.866;2023-07-13T09:36:21;2.67;;;1.60;;
49193;SDS011;35029;50.804;12.866;2023-07-13T09:41:54;3.88;;;1.52;;
49193;SDS011;35029;50.804;12.866;2023-07-13T09:46:56;6.53;;;1.65;;
49193;SDS011;35029;50.804;12.866;2023-07-13T09:49:28;6.15;;;2.17;;
49193;SDS011;35029;50.804;12.866;2023-07-13T09:52:06;5.15;;;2.03;;
49193;SDS011;35029;50.804;12.866;2023-07-13T09:54:36;7.20;;;2.42;;
49193;SDS011;35029;50.804;12.866;2023-07-13T09:57:03;5.55;;;2.15;;
49193;SDS011;35029;50.804;12.866;2023-07-13T09:59:40;5.35;;;2.13;;
49193;SDS011;35029;50.804;12.866;2023-07-13T10:05:13;3.25;;;1.60;;
49193;SDS011;35029;50.804;12.866;2023-07-13T10:07:49;6.10;;;1.83;;
49193;SDS011;35029;50.804;12.866;2023-07-13T10:10:17;3.08;;;1.83;;
49193;SDS011;35029;50.804;12.866;2023-07-13T10:12:46;5.43;;;1.80;;
49193;SDS011;35029;50.804;12.866;2023-07-13T10:15:13;4.03;;;1.50;;
49193;SDS011;35029;50.804;12.866;2023-07-13T10:17:42;6.72;;;2.20;;
49193;SDS011;35029;50.804;12.866;2023-07-13T10:20:09;6.35;;;2.30;;
49193;SDS011;35029;50.804;12.866;2023-07-13T10:25:29;7.82;;;1.75;;
49193;SDS011;35029;50.804;12.866;2023-07-13T10:30:51;3.50;;;1.67;;
49193;SDS011;35029;50.804;12.866;2023-07-13T10:33:20;4.28;;;1.77;;
49193;SDS011;35029;50.804;12.866;2023-07-13T10:35:46;3.60;;;1.55;;
49193;SDS011;35029;50.804;12.866;2023-07-13T10:38:15;3.50;;;1.83;;
49193;SDS011;35029;50.804;12.866;2023-07-13T10:43:31;3.88;;;1.30;;
49193;SDS011;35029;50.804;12.866;2023-07-13T10:46:04;9.18;;;1.75;;
49193;SDS011;35029;50.804;12.866;2023-07-13T10:48:33;5.03;;;1.50;;
49193;SDS011;35029;50.804;12.866;2023-07-13T10:51:02;2.80;;;1.70;;
49193;SDS011;35029;50.804;12.866;2023-07-13T10:53:32;2.58;;;1.55;;
49193;SDS011;35029;50.804;12.866;2023-07-13T10:56:01;3.00;;;1.40;;
49193;SDS011;35029;50.804;12.866;2023-07-13T10:58:40;2.90;;;1.48;;
49193;SDS011;35029;50.804;12.866;2023-07-13T11:01:16;2.90;;;1.58;;
49193;SDS011;35029;50.804;12.866;2023-07-13T11:06:10;3.70;;;1.63;;
49193;SDS011;35029;50.804;12.866;2023-07-13T11:08:58;5.53;;;1.90;;
49193;SDS011;35029;50.804;12.866;2023-07-13T11:11:43;2.35;;;1.50;;
49193;SDS011;35029;50.804;12.866;2023-07-13T11:17:23;5.20;;;1.88;;
49193;SDS011;35029;50.804;12.866;2023-07-13T11:20:38;6.53;;;1.92;;
49193;SDS011;35029;50.804;12.866;2023-07-13T11:22:53;5.43;;;1.95;;
49193;SDS011;35029;50.804;12.866;2023-07-13T11:25:32;3.95;;;1.83;;
49193;SDS011;35029;50.804;12.866;2023-07-13T11:38:37;3.08;;;2.05;;
49193;SDS011;35029;50.804;12.866;2023-07-13T11:41:15;5.95;;;2.08;;
49193;SDS011;35029;50.804;12.866;2023-07-13T11:43:44;5.53;;;1.60;;
49193;SDS011;35029;50.804;12.866;2023-07-13T11:48:40;4.70;;;2.17;;
49193;SDS011;35029;50.804;12.866;2023-07-13T11:51:07;2.97;;;1.30;;
49193;SDS011;35029;50.804;12.866;2023-07-13T11:53:48;6.63;;;2.00;;
49193;SDS011;35029;50.804;12.866;2023-07-13T11:56:15;6.28;;;1.42;;
49193;SDS011;35029;50.804;12.866;2023-07-13T11:58:41;8.23;;;2.30;;
49193;SDS011;35029;50.804;12.866;2023-07-13T12:01:10;5.57;;;2.08;;
49193;SDS011;35029;50.804;12.866;2023-07-13T12:03:44;2.53;;;1.15;;
49193;SDS011;35029;50.804;12.866;2023-07-13T12:06:25;4.63;;;2.00;;
49193;SDS011;35029;50.804;12.866;2023-07-13T12:09:02;2.70;;;1.60;;
49193;SDS011;35029;50.804;12.866;2023-07-13T12:11:43;4.38;;;1.73;;
49193;SDS011;35029;50.804;12.866;2023-07-13T12:14:15;7.45;;;1.95;;
49193;SDS011;35029;50.804;12.866;2023-07-13T12:16:42;2.17;;;1.30;;
49193;SDS011;35029;50.804;12.866;2023-07-13T12:19:22;2.65;;;1.63;;
49193;SDS011;35029;50.804;12.866;2023-07-13T12:21:52;6.03;;;1.80;;
49193;SDS011;35029;50.804;12.866;2023-07-13T12:24:20;4.78;;;1.85;;
49193;SDS011;35029;50.804;12.866;2023-07-13T12:26:54;4.05;;;1.90;;
49193;SDS011;35029;50.804;12.866;2023-07-13T12:29:26;5.30;;;1.70;;
49193;SDS011;35029;50.804;12.866;2023-07-13T12:31:52;6.07;;;1.67;;
49193;SDS011;35029;50.804;12.866;2023-07-13T12:34:19;5.07;;;1.92;;
49193;SDS011;35029;50.804;12.866;2023-07-13T12:36:58;4.15;;;1.75;;
49193;SDS011;35029;50.804;12.866;2023-07-13T12:39:35;5.80;;;1.60;;
49193;SDS011;35029;50.804;12.866;2023-07-13T12:42:24;6.07;;;2.22;;
49193;SDS011;35029;50.804;12.866;2023-07-13T12:45:38;3.50;;;1.73;;
49193;SDS011;35029;50.804;12.866;2023-07-13T12:47:47;2.83;;;1.50;;
49193;SDS011;35029;50.804;12.866;2023-07-13T12:50:17;1.92;;;1.45;;
49193;SDS011;35029;50.804;12.866;2023-07-13T12:52:50;3.95;;;1.55;;
49193;SDS011;35029;50.804;12.866;2023-07-13T12:55:18;4.82;;;1.90;;
49193;SDS011;35029;50.804;12.866;2023-07-13T13:02:54;2.92;;;1.55;;
49193;SDS011;35029;50.804;12.866;2023-07-13T13:05:21;4.30;;;1.67;;
49193;SDS011;35029;50.804;12.866;2023-07-13T13:07:51;5.18;;;1.90;;
49193;SDS011;35029;50.804;12.866;2023-07-13T13:10:17;5.97;;;1.58;;
49193;SDS011;35029;50.804;12.866;2023-07-13T13:12:43;3.95;;;1.40;;
49193;SDS011;35029;50.804;12.866;2023-07-13T13:15:09;3.47;;;1.77;;
49193;SDS011;35029;50.804;12.866;2023-07-13T13:17:39;6.78;;;1.75;;
49193;SDS011;35029;50.804;12.866;2023-07-13T13:20:15;3.35;;;1.33;;
49193;SDS011;35029;50.804;12.866;2023-07-13T13:22:42;3.90;;;1.70;;
49193;SDS011;35029;50.804;12.866;2023-07-13T13:25:11;4.07;;;1.70;;
49193;SDS011;35029;50.804;12.866;2023-07-13T13:27:39;3.88;;;1.70;;
49193;SDS011;35029;50.804;12.866;2023-07-13T13:30:12;2.28;;;1.50;;
49193;SDS011;35029;50.804;12.866;2023-07-13T13:32:39;1.55;;;1.10;;
49193;SDS011;35029;50.804;12.866;2023-07-13T13:35:08;4.13;;;1.50;;
49193;SDS011;35029;50.804;12.866;2023-07-13T13:37:39;3.60;;;2.17;;
49193;SDS011;35029;50.804;12.866;2023-07-13T13:40:13;4.30;;;1.90;;
49193;SDS011;35029;50.804;12.866;2023-07-13T13:42:43;3.33;;;1.25;;
49193;SDS011;35029;50.804;12.866;2023-07-13T13:45:09;5.95;;;1.95;;
49193;SDS011;35029;50.804;12.866;2023-07-13T13:47:37;4.50;;;1.42;;
49193;SDS011;35029;50.804;12.866;2023-07-13T13:50:22;3.85;;;1.88;;
49193;SDS011;35029;50.804;12.866;2023-07-13T13:52:49;6.32;;;1.70;;
49193;SDS011;35029;50.804;12.866;2023-07-13T13:55:19;5.68;;;1.50;;
49193;SDS011;35029;50.804;12.866;2023-07-13T13:57:47;2.78;;;1.55;;
49193;SDS011;35029;50.804;12.866;2023-07-13T14:00:13;4.72;;;1.40;;
49193;SDS011;35029;50.804;12.866;2023-07-13T14:02:48;4.35;;;1.40;;
49193;SDS011;35029;50.804;12.866;2023-07-13T14:05:21;2.65;;;1.10;;
49193;SDS011;35029;50.804;12.866;2023-07-13T14:07:48;2.75;;;1.45;;
49193;SDS011;35029;50.804;12.866;2023-07-13T14:10:15;3.55;;;1.67;;
49193;SDS011;35029;50.804;12.866;2023-07-13T14:12:47;2.67;;;1.45;;
49193;SDS011;35029;50.804;12.866;2023-07-13T14:15:23;2.70;;;1.48;;
49193;SDS011;35029;50.804;12.866;2023-07-13T14:17:50;2.90;;;1.13;;
49193;SDS011;35029;50.804;12.866;2023-07-13T14:20:17;2.53;;;1.60;;
49193;SDS011;35029;50.804;12.866;2023-07-13T14:22:45;3.35;;;1.55;;
49193;SDS011;35029;50.804;12.866;2023-07-13T14:25:12;1.38;;;1.00;;
49193;SDS011;35029;50.804;12.866;2023-07-13T14:27:38;2.85;;;1.10;;
49193;SDS011;35029;50.804;12.866;2023-07-13T14:30:15;1.48;;;0.88;;
49193;SDS011;35029;50.804;12.866;2023-07-13T14:32:43;4.30;;;1.08;;
49193;SDS011;35029;50.804;12.866;2023-07-13T14:35:16;2.80;;;1.08;;
49193;SDS011;35029;50.804;12.866;2023-07-13T14:37:43;2.95;;;1.10;;
49193;SDS011;35029;50.804;12.866;2023-07-13T14:42:40;1.92;;;1.10;;
49193;SDS011;35029;50.804;12.866;2023-07-13T14:45:09;5.47;;;1.20;;
49193;SDS011;35029;50.804;12.866;2023-07-13T14:47:38;2.08;;;1.13;;
49193;SDS011;35029;50.804;12.866;2023-07-13T14:50:03;2.05;;;1.10;;
49193;SDS011;35029;50.804;12.866;2023-07-13T14:52:30;2.65;;;1.00;;
49193;SDS011;35029;50.804;12.866;2023-07-13T14:54:56;2.10;;;1.00;;
49193;SDS011;35029;50.804;12.866;2023-07-13T14:57:21;1.83;;;1.08;;
49193;SDS011;35029;50.804;12.866;2023-07-13T14:59:47;2.95;;;1.25;;
49193;SDS011;35029;50.804;12.866;2023-07-13T15:02:17;3.58;;;0.98;;
49193;SDS011;35029;50.804;12.866;2023-07-13T15:04:55;2.63;;;1.00;;
49193;SDS011;35029;50.804;12.866;2023-07-13T15:07:21;1.52;;;1.10;;
49193;SDS011;35029;50.804;12.866;2023-07-13T15:09:48;2.97;;;1.10;;
49193;SDS011;35029;50.804;12.866;2023-07-13T15:12:14;2.30;;;0.95;;
49193;SDS011;35029;50.804;12.866;2023-07-13T15:14:39;3.25;;;0.90;;
49193;SDS011;35029;50.804;12.866;2023-07-13T15:17:07;2.22;;;0.90;;
49193;SDS011;35029;50.804;12.866;2023-07-13T15:19:49;2.83;;;1.08;;
49193;SDS011;35029;50.804;12.866;2023-07-13T15:22:14;3.25;;;1.08;;
49193;SDS011;35029;50.804;12.866;2023-07-13T15:24:40;3.10;;;1.30;;
49193;SDS011;35029;50.804;12.866;2023-07-13T15:27:09;5.38;;;1.05;;
49193;SDS011;35029;50.804;12.866;2023-07-13T15:29:37;0.95;;;0.80;;
49193;SDS011;35029;50.804;12.866;2023-07-13T15:32:03;1.80;;;0.90;;
49193;SDS011;35029;50.804;12.866;2023-07-13T15:34:28;1.67;;;1.00;;
49193;SDS011;35029;50.804;12.866;2023-07-13T15:36:54;2.83;;;1.35;;
49193;SDS011;35029;50.804;12.866;2023-07-13T15:39:20;1.88;;;1.27;;
49193;SDS011;35029;50.804;12.866;2023-07-13T15:41:46;1.42;;;1.02;;
49193;SDS011;35029;50.804;12.866;2023-07-13T15:44:25;1.90;;;1.05;;
49193;SDS011;35029;50.804;12.866;2023-07-13T15:46:53;1.60;;;1.00;;